Time;durP1;ratioP1;P1;durP2;ratioP2;P2;SDS_P1;SDS_P2;PMS_P1;PMS_P2;Temp;Humidity;BMP_temperature;BMP_pressure;BME280_temperature;BME280_humidity;BME280_pressure;Samples;Min_cycle;Max_cycle;Signal;HPM_P1;HPM_P2
2022/06/20 00:02:13;;;;;;;3.75;1.30;;;;;;;13.64;100.00;101536.22;5011462;28;20054;-27
2022/06/20 00:04:41;;;;;;;6.43;1.10;;;;;;;13.64;100.00;101540.97;5012006;28;20041;-30
2022/06/20 00:07:09;;;;;;;5.75;1.15;;;;;;;13.64;100.00;101529.75;5011906;28;20095;-31
2022/06/20 00:09:37;;;;;;;5.40;1.10;;;;;;;13.63;100.00;101523.31;5011106;28;20057;-27
2022/06/20 00:12:07;;;;;;;5.30;1.02;;;;;;;13.62;100.00;101530.06;5012252;28;20149;-29
2022/06/20 00:14:35;;;;;;;6.00;1.20;;;;;;;13.60;100.00;101540.75;5011514;28;20054;-34
2022/06/20 00:17:04;;;;;;;4.38;1.10;;;;;;;13.59;100.00;101529.88;5010849;28;20041;-31
2022/06/20 00:19:32;;;;;;;4.88;1.27;;;;;;;13.59;100.00;101513.84;5011923;28;20780;-31
2022/06/20 00:22:00;;;;;;;4.03;0.98;;;;;;;13.56;100.00;101506.06;5011016;28;20099;-26
2022/06/20 00:24:29;;;;;;;4.85;1.17;;;;;;;13.55;100.00;101514.78;5012018;28;20056;-30
2022/06/20 00:26:57;;;;;;;5.13;1.20;;;;;;;13.56;100.00;101519.25;5011784;28;20487;-27
2022/06/20 00:29:28;;;;;;;5.68;1.13;;;;;;;13.54;100.00;101518.72;5011382;28;20054;-34
2022/06/20 00:31:59;;;;;;;5.07;1.23;;;;;;;13.52;100.00;101495.75;5011725;28;20046;-25
2022/06/20 00:34:27;;;;;;;6.82;1.20;;;;;;;13.52;100.00;101498.56;5011847;28;20514;-31
2022/06/20 00:36:55;;;;;;;4.53;1.23;;;;;;;13.51;100.00;101508.94;5010798;28;20046;-31
2022/06/20 00:39:23;;;;;;;4.40;1.25;;;;;;;13.50;100.00;101517.66;5015576;28;20048;-30
2022/06/20 00:41:52;;;;;;;3.92;0.98;;;;;;;13.49;100.00;101516.81;5015561;28;20060;-29
2022/06/20 00:44:25;;;;;;;4.93;1.20;;;;;;;13.49;100.00;101524.41;5015080;28;20046;-35
2022/06/20 00:47:00;;;;;;;6.57;1.50;;;;;;;13.47;100.00;101518.25;5015140;28;20050;-34
2022/06/20 00:49:31;;;;;;;4.35;1.20;;;;;;;13.43;100.00;101518.84;5015620;28;20041;-25
2022/06/20 00:52:06;;;;;;;6.25;1.13;;;;;;;13.43;100.00;101530.06;5015573;28;20046;-29
2022/06/20 00:54:40;;;;;;;4.88;1.15;;;;;;;13.40;100.00;101527.84;5013292;28;20052;-32
2022/06/20 00:57:28;;;;;;;5.95;1.00;;;;;;;13.42;100.00;101539.59;5015019;28;20044;-32
2022/06/20 01:00:01;;;;;;;5.80;1.30;;;;;;;13.39;100.00;101543.00;5014624;28;20050;-33
2022/06/20 01:02:37;;;;;;;4.80;1.20;;;;;;;13.39;100.00;101545.81;5015408;28;20064;-31
2022/06/20 01:05:10;;;;;;;5.78;1.30;;;;;;;13.37;100.00;101541.66;5014770;28;20077;-32
2022/06/20 01:07:44;;;;;;;5.18;1.38;;;;;;;13.36;100.00;101545.59;5015059;28;20054;-29
2022/06/20 01:10:13;;;;;;;5.78;1.55;;;;;;;13.33;100.00;101541.44;5015173;28;20056;-29
2022/06/20 01:12:49;;;;;;;4.97;1.35;;;;;;;13.32;100.00;101555.75;5014274;28;20046;-30
2022/06/20 01:15:20;;;;;;;4.43;1.40;;;;;;;13.29;100.00;101551.56;5012975;28;20443;-31
2022/06/20 01:17:51;;;;;;;5.88;1.92;;;;;;;13.27;100.00;101548.22;5014245;28;20053;-30
2022/06/20 01:20:23;;;;;;;5.00;1.52;;;;;;;13.23;100.00;101547.16;5015132;28;20155;-33
2022/06/20 01:23:04;;;;;;;3.80;1.50;;;;;;;13.21;100.00;101555.03;5015346;28;20058;-27
2022/06/20 01:25:49;;;;;;;6.30;1.73;;;;;;;13.20;100.00;101563.75;5014257;28;20050;-32
2022/06/20 01:28:21;;;;;;;5.55;1.70;;;;;;;13.16;100.00;101568.28;5014742;28;20120;-29
2022/06/20 01:30:49;;;;;;;6.03;1.52;;;;;;;13.14;100.00;101562.97;5014807;28;20136;-33
2022/06/20 01:33:21;;;;;;;7.32;1.80;;;;;;;13.15;100.00;101569.41;5014092;28;20030;-29
2022/06/20 01:38:36;;;;;;;5.60;1.40;;;;;;;13.13;100.00;101580.91;5014514;28;20052;-33
2022/06/20 01:43:51;;;;;;;6.03;1.70;;;;;;;13.11;100.00;101574.75;5015014;28;20054;-35
2022/06/20 01:46:22;;;;;;;6.70;2.13;;;;;;;13.09;100.00;101568.63;5013959;28;20553;-30
2022/06/20 01:48:52;;;;;;;6.63;2.30;;;;;;;13.09;100.00;101589.06;5013629;28;20561;-34
2022/06/20 01:51:24;;;;;;;6.10;2.03;;;;;;;13.09;100.00;101574.22;5014357;28;20468;-35
2022/06/20 01:53:54;;;;;;;6.55;2.20;;;;;;;13.10;100.00;101570.28;5013921;28;20501;-33
2022/06/20 01:56:25;;;;;;;9.50;1.85;;;;;;;13.07;100.00;101571.72;5014618;28;20045;-33
2022/06/20 01:59:00;;;;;;;8.70;2.38;;;;;;;13.06;100.00;101570.03;5014365;28;20052;-29
2022/06/20 02:01:31;;;;;;;7.32;1.77;;;;;;;13.04;100.00;101563.91;5013761;28;20112;-29
2022/06/20 02:04:02;;;;;;;7.38;1.90;;;;;;;13.02;100.00;101565.31;5014085;28;20050;-30
2022/06/20 02:06:30;;;;;;;8.80;2.47;;;;;;;12.98;100.00;101564.28;5013953;28;20408;-29
2022/06/20 02:08:59;;;;;;;4.75;1.73;;;;;;;12.96;100.00;101563.75;5013378;28;20041;-28
2022/06/20 02:11:32;;;;;;;7.97;1.90;;;;;;;12.94;100.00;101571.59;5014085;28;20054;-37
2022/06/20 02:14:06;;;;;;;4.72;1.88;;;;;;;12.92;100.00;101571.06;5013312;28;20042;-35
2022/06/20 02:16:36;;;;;;;5.13;1.83;;;;;;;12.90;100.00;101576.97;5013882;28;20053;-31
2022/06/20 02:19:06;;;;;;;6.45;1.83;;;;;;;12.88;100.00;101576.41;5013662;28;20161;-36
2022/06/20 02:21:36;;;;;;;4.15;1.55;;;;;;;12.89;100.00;101575.28;5013206;28;20050;-35
2022/06/20 02:24:08;;;;;;;5.93;1.73;;;;;;;12.90;100.00;101590.13;5013903;28;20125;-36
2022/06/20 02:26:38;;;;;;;5.43;1.88;;;;;;;12.89;100.00;101586.50;5013836;28;20070;-34
2022/06/20 02:29:21;;;;;;;7.28;2.00;;;;;;;12.90;100.00;101590.97;5012996;28;20612;-32
2022/06/20 02:31:51;;;;;;;5.47;2.25;;;;;;;12.90;100.00;101587.34;5013811;28;20061;-32
2022/06/20 02:34:20;;;;;;;6.88;2.10;;;;;;;12.90;100.00;101579.75;5013850;28;20088;-34
2022/06/20 02:36:49;;;;;;;8.05;2.33;;;;;;;12.89;100.00;101574.47;5012782;28;20052;-34
2022/06/20 02:39:18;;;;;;;6.38;1.80;;;;;;;12.87;100.00;101566.34;5013581;28;20396;-32
2022/06/20 02:41:51;;;;;;;4.60;1.67;;;;;;;12.86;100.00;101558.25;5013141;28;20048;-29
2022/06/20 02:44:24;;;;;;;8.50;2.17;;;;;;;12.85;100.00;101562.16;5012968;28;20380;-35
2022/06/20 02:46:54;;;;;;;7.20;2.30;;;;;;;12.84;100.00;101566.09;5013101;28;20046;-34
2022/06/20 02:49:26;;;;;;;9.32;2.40;;;;;;;12.84;100.00;101558.53;5012829;28;20132;-32
2022/06/20 02:51:56;;;;;;;4.80;1.88;;;;;;;12.83;100.00;101559.66;5013130;28;20050;-32
2022/06/20 02:54:28;;;;;;;5.70;2.00;;;;;;;12.82;100.00;101558.00;5013344;28;20045;-35
2022/06/20 02:57:03;;;;;;;5.80;2.20;;;;;;;12.80;100.00;101557.47;5012489;28;20375;-37
2022/06/20 02:59:37;;;;;;;6.38;2.00;;;;;;;12.77;100.00;101555.28;5013392;28;20092;-27
2022/06/20 03:02:09;;;;;;;9.10;2.28;;;;;;;12.72;100.00;101561.75;5012787;28;20050;-34
2022/06/20 03:04:40;;;;;;;7.30;2.00;;;;;;;12.70;100.00;101561.22;5012443;28;20559;-35
2022/06/20 03:07:13;;;;;;;5.72;1.90;;;;;;;12.68;100.00;101563.47;5013094;28;20436;-35
2022/06/20 03:09:41;;;;;;;;;;;;;;;12.61;100.00;101562.97;5013623;28;20116;-33
2022/06/20 03:12:10;;;;;;;8.38;2.20;;;;;;;12.57;100.00;101566.69;5011871;28;19921;-31
2022/06/20 03:14:44;;;;;;;5.95;2.08;;;;;;;12.58;100.00;101563.59;5012983;28;20062;-33
2022/06/20 03:17:14;;;;;;;7.68;2.03;;;;;;;12.59;100.00;101568.03;5012607;28;20037;-33
2022/06/20 03:19:46;;;;;;;5.32;2.00;;;;;;;12.59;100.00;101562.44;5012857;28;20056;-38
2022/06/20 03:22:19;;;;;;;10.20;2.85;;;;;;;12.58;100.00;101544.00;5011554;28;20050;-32
2022/06/20 03:24:50;;;;;;;9.05;2.83;;;;;;;12.60;100.00;101549.28;5011149;28;20053;-27
2022/06/20 03:27:25;;;;;;;7.75;2.28;;;;;;;12.61;100.00;101551.78;5012460;28;20058;-33
2022/06/20 03:29:58;;;;;;;7.50;2.50;;;;;;;12.58;100.00;101552.41;5012740;28;20066;-30
2022/06/20 03:32:27;;;;;;;7.63;2.53;;;;;;;12.59;100.00;101547.63;5011773;28;20133;-32
2022/06/20 03:34:55;;;;;;;8.63;2.65;;;;;;;12.58;100.00;101546.81;5012709;28;20058;-34
2022/06/20 03:37:23;;;;;;;8.68;2.58;;;;;;;12.61;100.00;101548.16;5012495;28;20068;-33
2022/06/20 03:39:52;;;;;;;9.90;2.78;;;;;;;12.63;100.00;101549.53;5011775;28;20104;-35
2022/06/20 03:42:21;;;;;;;5.63;2.00;;;;;;;12.66;100.00;101542.50;5012271;28;20042;-32
2022/06/20 03:44:54;;;;;;;4.22;2.40;;;;;;;12.69;100.00;101547.50;5012464;28;20465;-33
2022/06/20 03:47:26;;;;;;;8.55;2.60;;;;;;;12.71;100.00;101543.28;5011628;28;20450;-36
2022/06/20 03:49:58;;;;;;;9.38;2.70;;;;;;;12.72;100.00;101552.53;5012380;28;20794;-34
2022/06/20 03:52:45;;;;;;;9.40;2.30;;;;;;;12.72;100.00;101553.34;5011737;28;20042;-31
2022/06/20 03:55:18;;;;;;;6.60;2.40;;;;;;;12.74;100.00;101551.09;5012286;28;20046;-35
2022/06/20 03:57:53;;;;;;;7.60;2.65;;;;;;;12.78;100.00;101545.75;5012422;28;20058;-35
2022/06/20 04:00:28;;;;;;;9.88;2.50;;;;;;;12.82;100.00;101554.34;5011417;28;20061;-33
2022/06/20 04:03:03;;;;;;;9.65;2.90;;;;;;;12.86;100.00;101547.03;5012250;28;20042;-31
2022/06/20 04:05:38;;;;;;;11.45;2.55;;;;;;;12.90;100.00;101545.31;5012323;28;20045;-32
2022/06/20 04:08:09;;;;;;;8.75;2.88;;;;;;;12.94;100.00;101540.78;5011542;28;20050;-32
2022/06/20 04:10:58;;;;;;;7.80;2.20;;;;;;;12.96;100.00;101542.16;5012173;28;20050;-33
2022/06/20 04:13:33;;;;;;;9.73;2.50;;;;;;;13.03;100.00;101542.63;5011459;28;20050;-28
2022/06/20 04:16:05;;;;;;;7.10;2.38;;;;;;;13.10;100.00;101545.06;5012336;28;20052;-33
2022/06/20 04:18:44;;;;;;;11.32;2.47;;;;;;;13.15;100.00;101546.97;5012221;28;20742;-33
2022/06/20 04:21:20;;;;;;;10.63;2.50;;;;;;;13.17;100.00;101545.59;5011353;28;20132;-35
2022/06/20 04:23:55;;;;;;;10.70;2.70;;;;;;;13.20;100.00;101542.16;5012056;28;20060;-29
2022/06/20 04:26:29;;;;;;;9.00;2.33;;;;;;;13.23;100.00;101552.75;5011121;28;20042;-30
2022/06/20 04:29:02;;;;;;;10.70;2.78;;;;;;;13.27;100.00;101548.22;5011193;28;20484;-31
2022/06/20 04:31:40;;;;;;;7.82;2.28;;;;;;;13.29;100.00;101551.56;5012154;28;20069;-32
2022/06/20 04:34:16;;;;;;;10.50;2.55;;;;;;;13.31;100.00;101552.09;5011875;28;20506;-36
2022/06/20 04:36:51;;;;;;;8.13;2.47;;;;;;;13.34;100.00;101551.50;5011476;28;20046;-33
2022/06/20 04:39:23;;;;;;;6.75;2.33;;;;;;;13.38;100.00;101548.94;5012112;28;20054;-33
2022/06/20 04:41:57;;;;;;;7.35;2.28;;;;;;;13.42;100.00;101545.22;5011197;28;20088;-35
2022/06/20 04:44:34;;;;;;;11.45;2.40;;;;;;;13.49;100.00;101560.84;5011895;28;20046;-27
2022/06/20 04:47:23;;;;;;;7.88;2.25;;;;;;;13.56;100.00;101555.72;5011483;28;20046;-32
2022/06/20 04:49:53;;;;;;;9.93;2.13;;;;;;;13.59;100.00;101555.09;5011037;28;20144;-35
2022/06/20 04:52:26;;;;;;;9.48;2.25;;;;;;;13.66;100.00;101556.38;5011969;28;20050;-30
2022/06/20 04:54:55;;;;;;;6.80;2.22;;;;;;;13.72;100.00;101568.38;5011842;28;20164;-30
2022/06/20 04:57:26;;;;;;;7.25;2.08;;;;;;;13.75;100.00;101564.97;5009931;28;20038;-33
2022/06/20 04:59:55;;;;;;;9.68;3.10;;;;;;;13.77;100.00;101562.69;5011867;28;20042;-29
2022/06/20 05:02:25;;;;;;;8.15;2.72;;;;;;;13.78;100.00;101558.75;5011271;28;20403;-32
2022/06/20 05:04:58;;;;;;;6.40;2.40;;;;;;;13.79;100.00;101566.00;5010778;28;20052;-31
2022/06/20 05:07:30;;;;;;;7.53;2.38;;;;;;;13.80;100.00;101567.66;5011581;28;20052;-34
2022/06/20 05:10:03;;;;;;;8.40;2.60;;;;;;;13.82;100.00;101565.38;5010778;28;20046;-30
2022/06/20 05:12:38;;;;;;;5.95;2.53;;;;;;;13.83;100.00;101561.44;5011576;28;20054;-32
2022/06/20 05:15:12;;;;;;;6.93;2.60;;;;;;;13.86;100.00;101569.25;5011647;28;20052;-33
2022/06/20 05:17:43;;;;;;;10.00;2.70;;;;;;;13.93;100.00;101578.13;5010691;28;20495;-31
2022/06/20 05:20:23;;;;;;;8.88;2.45;;;;;;;14.02;100.00;101567.88;5011574;28;20046;-30
2022/06/20 05:22:58;;;;;;;6.80;1.88;;;;;;;14.07;100.00;101558.53;5011493;28;20136;-29
2022/06/20 05:25:26;;;;;;;7.10;2.45;;;;;;;14.14;100.00;101550.59;5012768;28;20137;-33
2022/06/20 05:27:58;;;;;;;9.27;2.30;;;;;;;14.19;100.00;101550.47;5014828;28;20046;-30
2022/06/20 05:30:32;;;;;;;12.68;3.58;;;;;;;14.21;100.00;101541.75;4998338;28;20534;-32
2022/06/20 05:33:06;;;;;;;9.15;2.53;;;;;;;14.20;100.00;101542.88;5014299;28;20411;-34
2022/06/20 05:35:41;;;;;;;7.18;2.03;;;;;;;14.21;100.00;101552.97;5014970;28;20060;-33
2022/06/20 05:38:19;;;;;;;8.90;2.30;;;;;;;14.22;100.00;101552.66;5013981;28;20050;-30
2022/06/20 05:40:49;;;;;;;10.85;2.80;;;;;;;14.21;100.00;101556.63;5014872;28;20049;-35
2022/06/20 05:43:23;;;;;;;7.88;2.20;;;;;;;14.21;100.00;101556.63;5014694;28;20046;-34
2022/06/20 05:45:53;;;;;;;8.73;2.28;;;;;;;14.20;100.00;101565.34;5013806;28;20476;-33
2022/06/20 05:48:26;;;;;;;8.73;1.95;;;;;;;14.20;100.00;101573.75;5014402;28;20046;-29
2022/06/20 05:50:59;;;;;;;7.90;2.42;;;;;;;14.19;100.00;101574.94;5014537;28;20550;-31
2022/06/20 05:53:32;;;;;;;7.88;2.17;;;;;;;14.20;100.00;101573.75;5010585;28;20080;-30
2022/06/20 05:56:01;;;;;;;;;;;;;;;14.17;100.00;101582.81;5015123;28;20096;-27
2022/06/20 05:58:38;;;;;;;11.07;2.33;;;;;;;14.17;100.00;101586.47;5008993;28;19922;-31
2022/06/20 06:01:13;;;;;;;7.93;2.20;;;;;;;14.24;100.00;101591.66;5012756;28;20140;-32
2022/06/20 06:03:55;;;;;;;9.82;2.10;;;;;;;14.31;100.00;101590.16;5013735;28;20058;-28
2022/06/20 06:06:31;;;;;;;9.55;2.42;;;;;;;14.37;100.00;101590.91;5012946;28;20076;-32
2022/06/20 06:09:05;;;;;;;6.78;1.80;;;;;;;14.43;100.00;101600.91;5012994;28;20075;-34
2022/06/20 06:11:38;;;;;;;8.52;2.13;;;;;;;14.51;100.00;101600.22;5013256;28;20050;-36
2022/06/20 06:14:13;;;;;;;9.07;2.05;;;;;;;14.55;100.00;101606.91;5012612;28;20068;-29
2022/06/20 06:16:48;;;;;;;6.85;2.15;;;;;;;14.64;100.00;101609.81;5011754;28;20060;-37
2022/06/20 06:19:33;;;;;;;8.27;2.20;;;;;;;14.75;100.00;101609.34;5012938;28;20061;-31
2022/06/20 06:22:07;;;;;;;7.32;2.05;;;;;;;14.88;100.00;101615.28;5012040;28;20133;-35
2022/06/20 06:24:39;;;;;;;6.50;2.17;;;;;;;15.02;100.00;101610.50;5012790;28;20084;-36
2022/06/20 06:27:12;;;;;;;;;;;;;;;15.14;100.00;101616.47;5013252;28;20050;-30
2022/06/20 06:29:45;;;;;;;7.63;2.00;;;;;;;15.33;100.00;101616.38;5009692;28;19925;-29
2022/06/20 06:32:17;;;;;;;6.88;1.90;;;;;;;15.64;100.00;101614.59;5012988;28;20054;-30
2022/06/20 06:34:53;;;;;;;7.70;2.10;;;;;;;16.01;100.00;101624.72;5011758;28;20515;-28
2022/06/20 06:37:27;;;;;;;7.43;1.83;;;;;;;16.43;100.00;101622.59;5012572;28;20046;-32
2022/06/20 06:40:01;;;;;;;7.50;2.22;;;;;;;16.92;100.00;101620.78;5012503;28;20064;-29
2022/06/20 06:42:29;;;;;;;8.55;2.08;;;;;;;17.51;100.00;101620.19;5012060;28;20064;-33
2022/06/20 06:45:00;;;;;;;8.15;1.90;;;;;;;18.07;98.43;101624.13;5012210;28;20554;-35
2022/06/20 06:47:34;;;;;;;7.35;2.00;;;;;;;18.32;94.17;101621.66;5012704;28;20057;-37
2022/06/20 06:50:14;;;;;;;7.28;2.00;;;;;;;18.28;92.10;101623.47;5011489;28;20491;-32
2022/06/20 06:52:50;;;;;;;6.90;1.92;;;;;;;18.41;92.78;101628.94;5012713;28;20054;-31
2022/06/20 06:55:25;;;;;;;8.82;2.30;;;;;;;18.67;90.67;101617.66;5010189;28;20081;-29
2022/06/20 06:58:00;;;;;;;5.43;2.33;;;;;;;18.90;89.42;101624.75;5010995;28;20459;-29
2022/06/20 07:00:33;;;;;;;5.72;1.70;;;;;;;19.45;88.02;101638.00;5012375;28;20072;-28
2022/06/20 07:03:06;;;;;;;5.63;1.58;;;;;;;19.83;84.69;101632.34;5011783;28;20060;-28
2022/06/20 07:05:38;;;;;;;5.43;1.38;;;;;;;20.06;81.88;101641.34;5011896;28;20050;-29
2022/06/20 07:08:12;;;;;;;4.65;1.70;;;;;;;20.41;80.97;101646.75;5012494;28;20080;-30
2022/06/20 07:10:47;;;;;;;7.38;1.70;;;;;;;20.80;77.34;101656.72;5010696;28;20056;-32
2022/06/20 07:13:22;;;;;;;3.90;1.38;;;;;;;20.92;74.21;101653.94;5012476;28;20060;-35
2022/06/20 07:15:54;;;;;;;5.15;1.65;;;;;;;20.94;73.41;101648.75;5010037;28;20136;-29
2022/06/20 07:18:30;;;;;;;;;;;;;;;21.18;66.67;101653.66;5012048;28;20141;-34
2022/06/20 07:20:58;;;;;;;4.07;1.30;;;;;;;21.60;71.59;101646.63;5011244;28;20289;-30
2022/06/20 07:23:27;;;;;;;5.30;1.30;;;;;;;22.21;69.38;101646.56;5011494;28;20049;-30
2022/06/20 07:25:56;;;;;;;4.50;1.23;;;;;;;22.79;66.96;101632.84;5011831;28;20212;-30
2022/06/20 07:28:34;;;;;;;6.20;1.65;;;;;;;23.32;61.57;101627.78;5012930;28;20049;-33
2022/06/20 07:31:09;;;;;;;2.65;1.20;;;;;;;23.55;59.59;101626.00;5011671;28;20407;-38
2022/06/20 07:33:42;;;;;;;4.60;1.38;;;;;;;23.90;58.98;101636.59;5012695;28;20527;-33
2022/06/20 07:36:13;;;;;;;4.25;1.20;;;;;;;24.48;56.94;101639.53;5012578;28;20046;-32
2022/06/20 07:38:49;;;;;;;5.53;1.60;;;;;;;24.89;53.54;101638.75;5012126;28;20125;-31
2022/06/20 07:41:21;;;;;;;4.55;1.50;;;;;;;24.80;53.88;101635.31;5012262;28;20148;-39
2022/06/20 07:43:56;;;;;;;6.60;1.23;;;;;;;24.92;54.20;101634.34;5012610;28;20483;-30
2022/06/20 07:46:27;;;;;;;5.53;1.65;;;;;;;25.09;51.78;101635.91;5011667;28;20075;-36
2022/06/20 07:48:57;;;;;;;;;;;;;;;25.03;50.15;101638.25;5010723;28;20081;-30
2022/06/20 07:51:31;;;;;;;5.95;1.38;;;;;;;25.31;53.41;101647.34;5012151;28;20020;-36
2022/06/20 07:54:07;;;;;;;3.92;1.30;;;;;;;25.68;51.87;101652.50;5012461;28;20133;-36
2022/06/20 07:56:39;;;;;;;3.47;1.13;;;;;;;25.88;49.92;101647.50;5011977;28;20053;-33
2022/06/20 07:59:11;;;;;;;3.83;1.20;;;;;;;25.99;47.65;101649.28;5011926;28;20088;-35
2022/06/20 08:01:45;;;;;;;5.53;1.25;;;;;;;25.95;46.57;101651.31;5011994;28;20573;-41
2022/06/20 08:04:15;;;;;;;5.82;1.40;;;;;;;25.76;46.63;101659.16;5001809;28;20153;-31
2022/06/20 08:06:48;;;;;;;4.13;1.10;;;;;;;25.43;47.00;101657.75;5011284;28;20066;-41
2022/06/20 08:09:22;;;;;;;5.10;1.40;;;;;;;25.21;47.37;101656.53;5012465;28;20049;-34
2022/06/20 08:11:57;;;;;;;5.13;1.25;;;;;;;25.32;49.10;101665.31;5012056;28;20046;-34
2022/06/20 08:14:33;;;;;;;3.80;1.15;;;;;;;25.82;48.02;101672.72;5011455;28;20041;-37
2022/06/20 08:17:07;;;;;;;5.53;1.40;;;;;;;26.14;46.66;101664.66;5011990;28;20045;-31
2022/06/20 08:19:37;;;;;;;3.47;0.98;;;;;;;26.17;46.33;101663.91;5012215;28;20486;-34
2022/06/20 08:22:12;;;;;;;4.57;1.30;;;;;;;26.38;45.85;101663.38;5011461;28;20038;-30
2022/06/20 08:24:46;;;;;;;4.75;1.38;;;;;;;26.38;44.85;101678.50;5012250;28;20049;-36
2022/06/20 08:27:22;;;;;;;5.38;1.42;;;;;;;26.46;45.20;101678.63;5010983;28;20046;-32
2022/06/20 08:29:58;;;;;;;5.78;1.45;;;;;;;26.33;44.37;101680.91;5011905;28;20434;-34
2022/06/20 08:32:34;;;;;;;4.95;1.42;;;;;;;25.90;44.35;101693.69;5011623;28;20038;-31
2022/06/20 08:35:16;;;;;;;8.50;1.85;;;;;;;25.45;44.86;101683.91;5011293;28;20052;-35
2022/06/20 08:37:50;;;;;;;6.93;1.60;;;;;;;25.12;46.49;101698.00;5011587;28;20054;-32
2022/06/20 08:40:47;;;;;;;6.60;1.50;;;;;;;25.13;47.33;101691.06;5011794;28;20542;-39
2022/06/20 08:44:00;;;;;;;6.60;2.17;;;;;;;25.13;46.35;101696.78;5011548;28;20070;-40
2022/06/20 08:46:52;;;;;;;6.13;1.25;;;;;;;25.05;47.53;101707.22;4979961;28;20511;-32
2022/06/20 08:49:53;;;;;;;5.57;1.42;;;;;;;24.87;46.34;101706.84;5008206;28;20046;-39
2022/06/20 08:52:54;;;;;;;4.90;1.27;;;;;;;24.54;47.08;101709.41;4996824;28;20954;-30
2022/06/20 08:55:58;;;;;;;6.95;1.35;;;;;;;24.27;47.81;101714.06;5002112;28;20068;-35
2022/06/20 08:58:37;;;;;;;6.18;1.52;;;;;;;24.25;49.38;101708.75;5012003;28;20037;-33
2022/06/20 09:01:14;;;;;;;7.65;1.50;;;;;;;24.33;49.84;101702.00;5004725;28;20054;-36
2022/06/20 09:04:08;;;;;;;5.97;1.70;;;;;;;24.23;49.02;101708.25;5014337;28;20368;-29
2022/06/20 09:06:56;;;;;;;7.18;1.63;;;;;;;24.12;49.03;101706.34;5007203;28;20414;-30
2022/06/20 09:09:46;;;;;;;7.13;2.20;;;;;;;23.99;49.44;101714.19;5013806;28;20046;-30
2022/06/20 09:12:43;;;;;;;5.82;1.67;;;;;;;24.02;50.97;101719.16;5015215;28;20137;-34
2022/06/20 09:15:31;;;;;;;5.53;1.95;;;;;;;24.01;48.75;101726.03;5015085;28;20049;-29
2022/06/20 09:18:05;;;;;;;7.15;1.30;;;;;;;24.09;50.95;101725.03;4996911;28;20145;-34
2022/06/20 09:20:39;;;;;;;6.10;1.60;;;;;;;24.62;50.02;101734.03;5014966;28;20050;-36
2022/06/20 09:23:25;;;;;;;5.00;1.50;;;;;;;25.16;48.91;101731.13;5013821;28;20060;-29
2022/06/20 09:25:57;;;;;;;7.55;1.45;;;;;;;25.53;48.61;101734.28;5014494;28;20435;-34
2022/06/20 09:28:45;;;;;;;5.57;1.90;;;;;;;26.03;46.92;101735.16;5014588;28;20577;-38
2022/06/20 09:31:29;;;;;;;3.85;1.25;;;;;;;26.46;45.45;101741.59;5012052;28;20057;-36
2022/06/20 09:34:11;;;;;;;5.55;1.50;;;;;;;26.92;43.92;101743.06;5014500;28;20069;-34
2022/06/20 09:36:44;;;;;;;;;;;;;;;27.27;41.00;101734.09;5014579;28;20058;-35
2022/06/20 09:39:35;;;;;;;3.65;1.15;;;;;;;27.33;41.22;101748.91;5013678;28;19952;-32
2022/06/20 09:42:16;;;;;;;6.90;1.40;;;;;;;27.51;42.24;101741.31;5011450;28;20045;-37
2022/06/20 09:44:53;;;;;;;6.65;1.40;;;;;;;27.79;41.74;101744.47;5013446;28;20129;-31
2022/06/20 09:47:37;;;;;;;5.97;1.50;;;;;;;28.11;39.25;101753.38;5012344;28;20108;-42
2022/06/20 09:50:18;;;;;;;3.47;1.20;;;;;;;28.00;39.68;101757.34;5014315;28;20053;-32
2022/06/20 09:52:59;;;;;;;5.88;1.35;;;;;;;27.71;40.41;101757.09;5013692;28;20525;-33
2022/06/20 09:55:32;;;;;;;;;;;;;;;27.57;40.01;101745.50;5014246;28;20144;-32
2022/06/20 09:58:11;;;;;;;6.13;1.33;;;;;;;27.40;41.16;101751.81;5003293;28;19936;-33
2022/06/20 10:00:46;;;;;;;5.00;1.30;;;;;;;27.00;41.88;101756.28;5013579;28;20095;-33
2022/06/20 10:03:23;;;;;;;6.32;1.35;;;;;;;26.51;42.28;101747.81;5014415;28;20045;-34
2022/06/20 10:05:54;;;;;;;3.95;1.20;;;;;;;26.16;43.93;101748.06;5012955;28;20446;-37
2022/06/20 10:08:31;;;;;;;6.00;1.50;;;;;;;25.90;44.15;101750.91;5012404;28;20054;-31
2022/06/20 10:11:06;;;;;;;4.20;1.00;;;;;;;25.63;44.20;101753.69;5010725;28;20417;-32
2022/06/20 10:13:41;;;;;;;6.78;1.65;;;;;;;25.25;44.50;101762.31;5012354;28;20058;-30
2022/06/20 10:16:16;;;;;;;4.97;1.38;;;;;;;24.70;45.74;101765.22;5012511;28;20057;-32
2022/06/20 10:18:50;;;;;;;5.80;1.52;;;;;;;24.26;46.16;101760.91;5012885;28;20065;-29
2022/06/20 10:21:26;;;;;;;3.13;1.45;;;;;;;24.24;47.36;101763.31;5011971;28;20121;-35
2022/06/20 10:24:19;;;;;;;4.25;1.10;;;;;;;24.42;45.78;101773.13;5012926;28;20450;-32
2022/06/20 10:27:06;;;;;;;4.20;1.30;;;;;;;24.27;45.66;101777.66;4989322;28;20042;-31
2022/06/20 10:29:50;;;;;;;5.72;1.20;;;;;;;24.16;46.35;101770.03;5012660;28;20590;-33
2022/06/20 10:32:21;;;;;;;4.72;0.93;;;;;;;24.33;46.45;101769.66;5012116;28;20124;-30
2022/06/20 10:35:01;;;;;;;3.72;1.10;;;;;;;24.59;45.66;101766.16;5011878;28;20046;-33
2022/06/20 10:37:35;;;;;;;4.88;1.23;;;;;;;25.05;45.68;101770.91;5012035;28;20041;-29
2022/06/20 10:40:27;;;;;;;4.18;1.08;;;;;;;25.71;45.95;101781.22;5012478;28;20064;-38
2022/06/20 10:43:05;;;;;;;5.65;1.27;;;;;;;25.85;44.00;101776.94;5011963;28;20511;-30
2022/06/20 10:45:42;;;;;;;4.20;1.20;;;;;;;25.67;44.07;101786.03;5012675;28;20053;-35
2022/06/20 10:48:46;;;;;;;3.58;1.10;;;;;;;25.63;43.50;101790.03;5010678;28;20058;-34
2022/06/20 10:51:27;;;;;;;4.05;1.00;;;;;;;25.63;43.62;101799.44;4991108;28;20111;-37
2022/06/20 10:54:08;;;;;;;3.08;1.02;;;;;;;25.55;43.41;101789.06;5012412;28;20392;-33
2022/06/20 10:56:45;;;;;;;3.25;1.10;;;;;;;25.73;43.78;101790.25;5011500;28;20046;-29
2022/06/20 10:59:28;;;;;;;4.70;1.42;;;;;;;26.01;42.55;101794.78;5010419;28;20081;-35
2022/06/20 11:02:04;;;;;;;5.75;1.02;;;;;;;26.13;41.27;101800.34;5011024;28;20414;-30
2022/06/20 11:04:53;;;;;;;4.30;1.02;;;;;;;26.35;41.75;101801.56;5011910;28;20042;-31
2022/06/20 11:07:29;;;;;;;4.25;1.02;;;;;;;26.65;41.52;101804.44;5012033;28;20116;-36
2022/06/20 11:10:05;;;;;;;3.25;0.98;;;;;;;26.85;41.19;101811.69;5011373;28;20064;-35
2022/06/20 11:12:53;;;;;;;4.50;1.15;;;;;;;26.77;39.56;101818.56;5011892;28;20049;-36
2022/06/20 11:15:32;;;;;;;3.63;0.95;;;;;;;26.56;40.87;101812.50;5009954;28;20073;-29
2022/06/20 11:18:14;;;;;;;4.75;1.02;;;;;;;26.72;41.45;101810.28;5011407;28;20463;-29
2022/06/20 11:20:49;;;;;;;3.45;1.08;;;;;;;26.83;41.50;101813.28;5011390;28;20045;-35
2022/06/20 11:23:21;;;;;;;4.90;1.00;;;;;;;26.70;40.40;101807.81;5010901;28;20060;-38
2022/06/20 11:26:04;;;;;;;4.75;1.38;;;;;;;26.74;40.51;101813.59;5011920;28;20052;-36
2022/06/20 11:28:54;;;;;;;4.85;1.40;;;;;;;26.88;41.10;101807.25;5011432;28;20056;-30
2022/06/20 11:31:33;;;;;;;3.33;1.13;;;;;;;26.94;39.61;101806.56;5002197;28;20136;-30
2022/06/20 11:34:36;;;;;;;3.15;1.00;;;;;;;26.97;40.57;101808.66;5011167;28;20068;-36
2022/06/20 11:37:16;;;;;;;5.15;1.38;;;;;;;27.10;40.17;101814.94;5000394;28;20132;-31
2022/06/20 11:40:04;;;;;;;3.90;1.05;;;;;;;27.06;39.83;101817.75;5011583;28;20081;-36
2022/06/20 11:42:58;;;;;;;5.55;1.63;;;;;;;26.90;39.77;101816.28;5011089;28;20078;-37
2022/06/20 11:45:40;;;;;;;4.45;1.40;;;;;;;26.83;39.91;101814.13;5004203;28;20053;-33
2022/06/20 11:48:25;;;;;;;3.72;1.00;;;;;;;26.87;39.53;101817.03;4992443;28;20064;-36
2022/06/20 11:51:03;;;;;;;4.64;1.23;;;;;;;26.78;40.03;101820.19;3212551;28;10001687;-35
2022/06/20 11:53:43;;;;;;;3.92;1.45;;;;;;;26.71;41.07;101811.50;5013777;28;20108;-29
2022/06/20 11:56:21;;;;;;;4.88;1.20;;;;;;;26.70;41.60;101812.72;5017901;28;20097;-30
2022/06/20 11:59:23;;;;;;;4.03;1.30;;;;;;;26.71;40.00;101812.34;5023171;28;20042;-32
2022/06/20 12:01:57;;;;;;;5.25;1.25;;;;;;;26.55;41.06;101816.59;5019560;28;20054;-34
2022/06/20 12:04:32;;;;;;;5.13;1.38;;;;;;;26.40;41.00;101816.34;5014724;28;20048;-35
2022/06/20 12:07:07;;;;;;;4.35;1.35;;;;;;;26.01;41.33;101820.53;5019170;28;20046;-28